createdAt,value
2023-05-24T00:00:01.054Z,98245.36
2023-05-24T00:02:28.927Z,98244.45
2023-05-24T00:04:56.289Z,98247.23
2023-05-24T00:07:23.403Z,98246.30
2023-05-24T00:09:50.597Z,98245.49
2023-05-24T00:12:18.015Z,98244.41
2023-05-24T00:14:45.593Z,98247.80
2023-05-24T00:17:12.942Z,98253.67
2023-05-24T00:19:40.417Z,98256.36
2023-05-24T00:22:07.625Z,98256.62
2023-05-24T00:24:34.959Z,98257.47
2023-05-24T00:27:02.274Z,98258.85
2023-05-24T00:29:31.554Z,98258.48
2023-05-24T00:32:00.449Z,98254.58
2023-05-24T00:34:27.821Z,98250.89
2023-05-24T00:36:54.863Z,98248.10
2023-05-24T00:39:21.936Z,98247.14
2023-05-24T00:41:49.302Z,98245.96
2023-05-24T00:44:16.465Z,98245.42
2023-05-24T00:46:43.612Z,98246.23
2023-05-24T00:49:10.734Z,98247.48
2023-05-24T00:51:41.049Z,98242.92
2023-05-24T00:54:08.232Z,98239.14
2023-05-24T00:56:35.798Z,98240.77
2023-05-24T00:59:03.529Z,98242.06
2023-05-24T01:01:32.131Z,98244.32
2023-05-24T01:03:59.729Z,98242.86
2023-05-24T01:06:28.261Z,98243.20
2023-05-24T01:09:24.160Z,98240.71
2023-05-24T01:12:15.819Z,98242.54
2023-05-24T01:14:55.372Z,98246.04
2023-05-24T01:17:36.592Z,98239.90
2023-05-24T01:20:07.098Z,98241.56
2023-05-24T01:23:11.981Z,98245.19
2023-05-24T01:26:09.619Z,98247.57
2023-05-24T01:28:36.843Z,98248.98
2023-05-24T01:31:04.099Z,98240.95
2023-05-24T01:33:31.303Z,98237.10
2023-05-24T01:35:58.400Z,98235.17
2023-05-24T01:38:25.554Z,98233.70
2023-05-24T01:40:53.647Z,98235.45
2023-05-24T01:43:43.747Z,98238.35
2023-05-24T01:46:28.651Z,98236.65
2023-05-24T01:49:27.415Z,98245.23
2023-05-24T01:52:05.321Z,98244.05
2023-05-24T01:54:34.151Z,98242.58
2023-05-24T01:57:01.201Z,98242.95
2023-05-24T01:59:28.990Z,98241.27
2023-05-24T02:01:56.573Z,98235.83
2023-05-24T02:04:23.749Z,98233.07
2023-05-24T02:06:51.098Z,98234.23
2023-05-24T02:09:18.452Z,98228.02
2023-05-24T02:11:45.780Z,98229.96
2023-05-24T02:14:13.500Z,98229.17
2023-05-24T02:16:47.026Z,98231.48
2023-05-24T02:19:14.454Z,98229.27
2023-05-24T02:21:41.503Z,98235.27
2023-05-24T02:24:15.123Z,98234.96
2023-05-24T02:26:42.482Z,98236.95
2023-05-24T02:29:09.653Z,98236.45
2023-05-24T02:31:37.187Z,98234.11
2023-05-24T02:34:04.280Z,98236.80
2023-05-24T02:36:34.665Z,98240.73
2023-05-24T02:39:02.348Z,98243.59
2023-05-24T02:41:29.910Z,98244.55
2023-05-24T02:43:57.100Z,98240.83
2023-05-24T02:46:24.426Z,98242.39
2023-05-24T02:48:51.757Z,98240.95
2023-05-24T02:51:18.935Z,98245.73
2023-05-24T02:53:46.179Z,98249.27
2023-05-24T02:56:14.144Z,98246.71
2023-05-24T02:58:41.813Z,98248.70
2023-05-24T03:01:09.014Z,98253.11
2023-05-24T03:03:36.921Z,98248.59
2023-05-24T03:06:07.147Z,98245.91
2023-05-24T03:08:34.903Z,98239.06
2023-05-24T03:11:02.245Z,98240.29
2023-05-24T03:13:29.571Z,98240.21
2023-05-24T03:15:56.947Z,98244.85
2023-05-24T03:18:24.141Z,98242.70
2023-05-24T03:20:52.115Z,98248.33
2023-05-24T03:23:21.200Z,98249.26
2023-05-24T03:25:49.271Z,98250.18
2023-05-24T03:28:16.285Z,98250.33
2023-05-24T03:30:44.043Z,98252.68
2023-05-24T03:33:11.520Z,98253.25
2023-05-24T03:35:39.014Z,98249.14
2023-05-24T03:38:06.497Z,98246.95
2023-05-24T03:40:34.932Z,98250.55
2023-05-24T03:43:05.134Z,98252.91
2023-05-24T03:45:50.472Z,98257.02
2023-05-24T03:48:21.102Z,98260.45
2023-05-24T03:50:48.451Z,98259.32
2023-05-24T03:53:16.282Z,98256.31
2023-05-24T03:55:43.407Z,98256.07
2023-05-24T03:58:12.754Z,98254.14
2023-05-24T04:00:40.157Z,98253.77
2023-05-24T04:03:07.587Z,98251.34
2023-05-24T04:05:35.496Z,98255.16
2023-05-24T04:08:03.095Z,98255.95
2023-05-24T04:10:30.515Z,98256.79
2023-05-24T04:12:57.891Z,98260.21
2023-05-24T04:15:25.039Z,98262.50
2023-05-24T04:17:55.353Z,98260.98
2023-05-24T04:20:27.814Z,98262.70
2023-05-24T04:22:56.477Z,98262.77
2023-05-24T04:25:24.082Z,98262.70
2023-05-24T04:27:51.311Z,98266.40
2023-05-24T04:30:18.854Z,98265.89
2023-05-24T04:32:46.867Z,98271.92
2023-05-24T04:35:14.350Z,98273.13
2023-05-24T04:37:41.535Z,98281.92
2023-05-24T04:40:09.426Z,98280.61
2023-05-24T04:42:36.650Z,98284.39
2023-05-24T04:45:04.018Z,98280.23
2023-05-24T04:47:31.653Z,98282.69
2023-05-24T04:49:58.856Z,98281.44
2023-05-24T04:52:26.150Z,98285.74
2023-05-24T04:54:55.327Z,98283.23
2023-05-24T04:57:22.828Z,98283.04
2023-05-24T04:59:49.917Z,98280.88
2023-05-24T05:02:20.698Z,98288.47
2023-05-24T05:04:47.877Z,98289.27
2023-05-24T05:07:15.160Z,98287.75
2023-05-24T05:09:42.294Z,98287.60
2023-05-24T05:12:09.378Z,98291.10
2023-05-24T05:14:36.883Z,98290.77
2023-05-24T05:17:04.113Z,98292.31
2023-05-24T05:19:31.411Z,98291.20
2023-05-24T05:21:58.738Z,98295.12
2023-05-24T05:24:25.860Z,98298.99
2023-05-24T05:26:53.152Z,98300.19
2023-05-24T05:29:21.259Z,98298.03
2023-05-24T05:31:50.116Z,98294.98
2023-05-24T05:34:17.370Z,98301.46
2023-05-24T05:36:44.420Z,98303.79
2023-05-24T05:39:11.537Z,98306.04
2023-05-24T05:41:39.299Z,98309.56
2023-05-24T05:44:06.835Z,98308.67
2023-05-24T05:46:34.729Z,98306.42
2023-05-24T05:49:01.926Z,98302.06
2023-05-24T05:51:29.144Z,98301.95
2023-05-24T05:53:56.472Z,98305.27
2023-05-24T05:56:23.633Z,98304.33
2023-05-24T05:58:50.724Z,98301.88
2023-05-24T06:01:17.850Z,98306.72
2023-05-24T06:03:45.386Z,98307.88
2023-05-24T06:06:12.742Z,98309.25
2023-05-24T06:08:41.132Z,98307.11
2023-05-24T06:11:08.197Z,98308.39
2023-05-24T06:13:36.242Z,98308.77
2023-05-24T06:16:03.516Z,98309.29
2023-05-24T06:18:32.716Z,98310.40
2023-05-24T06:20:59.981Z,98307.55
2023-05-24T06:23:27.183Z,98307.48
2023-05-24T06:25:54.318Z,98310.14
2023-05-24T06:28:22.894Z,98308.91
2023-05-24T06:30:49.910Z,98309.84
2023-05-24T06:33:17.540Z,98312.52
2023-05-24T06:35:44.653Z,98314.75
2023-05-24T06:38:12.345Z,98312.59
2023-05-24T06:40:40.338Z,98312.29
2023-05-24T06:43:08.173Z,98310.92
2023-05-24T06:45:35.840Z,98311.19
2023-05-24T06:48:03.280Z,98311.94
2023-05-24T06:50:30.659Z,98312.52
2023-05-24T06:52:58.064Z,98314.79
2023-05-24T06:55:25.164Z,98317.13
2023-05-24T06:57:52.379Z,98318.05
2023-05-24T07:00:20.506Z,98317.05
2023-05-24T07:02:47.703Z,98314.73
2023-05-24T07:05:15.441Z,98313.04
2023-05-24T07:07:42.671Z,98311.73
2023-05-24T07:10:13.063Z,98314.17
2023-05-24T07:12:40.551Z,98313.64
2023-05-24T07:15:08.856Z,98311.89
2023-05-24T07:17:36.656Z,98316.38
2023-05-24T07:20:07.115Z,98317.88
2023-05-24T07:22:34.466Z,98320.75
2023-05-24T07:25:01.702Z,98321.48
2023-05-24T07:27:29.864Z,98322.07
2023-05-24T07:29:57.295Z,98319.83
2023-05-24T07:32:24.569Z,98321.89
2023-05-24T07:34:52.167Z,98319.42
2023-05-24T07:37:19.533Z,98320.55
2023-05-24T07:39:46.660Z,98324.27
2023-05-24T07:42:14.016Z,98328.16
2023-05-24T07:44:41.474Z,98328.48
2023-05-24T07:47:08.823Z,98332.97
2023-05-24T07:49:36.302Z,98325.71
2023-05-24T07:52:04.496Z,98328.23
2023-05-24T07:54:31.918Z,98330.69
2023-05-24T07:56:59.060Z,98328.04
2023-05-24T07:59:26.824Z,98329.55
2023-05-24T08:01:54.046Z,98334.76
2023-05-24T08:04:21.876Z,98331.32
2023-05-24T08:06:49.148Z,98332.50
2023-05-24T08:09:16.767Z,98328.88
2023-05-24T08:11:43.837Z,98327.54
2023-05-24T08:14:11.055Z,98326.73
2023-05-24T08:16:38.716Z,98326.32
2023-05-24T08:19:06.881Z,98322.34
2023-05-24T08:21:34.042Z,98329.82
2023-05-24T08:24:01.251Z,98325.39
2023-05-24T08:26:28.307Z,98328.98
2023-05-24T08:28:56.216Z,98321.76
2023-05-24T08:31:23.355Z,98316.62
2023-05-24T08:33:51.513Z,98321.04
2023-05-24T08:36:18.894Z,98320.48
2023-05-24T08:38:46.061Z,98324.13
2023-05-24T08:41:13.205Z,98322.56
2023-05-24T08:43:40.536Z,98320.67
2023-05-24T08:46:07.785Z,98322.63
2023-05-24T08:48:47.381Z,98314.15
2023-05-24T08:51:16.446Z,98314.60
2023-05-24T08:53:48.656Z,98312.93
2023-05-24T08:56:19.228Z,98314.39
2023-05-24T08:58:47.390Z,98321.52
2023-05-24T09:01:15.412Z,98322.59
2023-05-24T09:03:42.461Z,98318.85
2023-05-24T09:06:10.788Z,98317.13
2023-05-24T09:08:38.579Z,98317.38
2023-05-24T09:11:05.696Z,98313.32
2023-05-24T09:13:32.915Z,98317.14
2023-05-24T09:16:00.241Z,98316.16
2023-05-24T09:18:27.750Z,98323.91
2023-05-24T09:20:57.224Z,98319.64
2023-05-24T09:23:26.461Z,98320.11
2023-05-24T09:25:53.462Z,98323.31
2023-05-24T09:28:21.948Z,98321.90
2023-05-24T09:30:58.748Z,98315.79
2023-05-24T09:33:32.598Z,98314.59
2023-05-24T09:36:00.555Z,98319.29
2023-05-24T09:38:28.240Z,98321.03
2023-05-24T09:41:13.500Z,98322.35
2023-05-24T09:43:49.940Z,98321.05
2023-05-24T09:46:23.595Z,98318.86
2023-05-24T09:48:58.066Z,98322.04
2023-05-24T09:51:25.403Z,98322.00
2023-05-24T09:53:53.096Z,98319.80
2023-05-24T09:56:20.482Z,98320.59
2023-05-24T09:58:47.711Z,98324.15
2023-05-24T10:01:16.663Z,98321.08
2023-05-24T10:03:57.648Z,98315.80
2023-05-24T10:08:40.913Z,98313.41
2023-05-24T10:11:08.354Z,98312.27
2023-05-24T10:13:36.540Z,98311.12
2023-05-24T10:16:04.714Z,98309.92
2023-05-24T10:18:32.521Z,98312.23
2023-05-24T10:21:01.098Z,98313.13
2023-05-24T10:23:32.725Z,98315.20
2023-05-24T10:26:07.796Z,98314.05
2023-05-24T10:28:53.596Z,98313.89
2023-05-24T10:31:34.670Z,98309.61
2023-05-24T10:34:07.928Z,98314.36
2023-05-24T10:36:37.156Z,98309.95
2023-05-24T10:39:04.468Z,98310.14
2023-05-24T10:41:39.242Z,98315.23
2023-05-24T10:44:10.380Z,98314.05
2023-05-24T10:46:38.535Z,98315.00
2023-05-24T10:49:08.108Z,98313.78
2023-05-24T10:51:38.303Z,98313.26
2023-05-24T10:54:13.512Z,98311.70
2023-05-24T10:56:50.841Z,98312.60
2023-05-24T10:59:37.471Z,98315.80
2023-05-24T11:02:08.856Z,98318.64
2023-05-24T11:04:43.624Z,98318.05
2023-05-24T11:07:11.673Z,98317.40
2023-05-24T11:09:46.908Z,98318.98
2023-05-24T11:12:18.563Z,98315.81
2023-05-24T11:14:52.760Z,98322.64
2023-05-24T11:17:23.481Z,98320.45
2023-05-24T11:19:52.839Z,98318.07
2023-05-24T11:22:22.022Z,98316.70
2023-05-24T11:24:49.108Z,98312.88
2023-05-24T11:27:16.653Z,98314.55
2023-05-24T11:29:45.190Z,98315.44
2023-05-24T11:32:16.786Z,98307.83
2023-05-24T11:34:47.808Z,98308.05
2023-05-24T11:37:17.706Z,98313.05
2023-05-24T11:39:49.881Z,98307.13
2023-05-24T11:42:17.050Z,98302.64
2023-05-24T11:44:44.131Z,98305.71
2023-05-24T11:47:12.093Z,98300.27
2023-05-24T11:49:39.290Z,98295.97
2023-05-24T11:52:07.529Z,98300.15
2023-05-24T11:54:40.680Z,98296.52
2023-05-24T11:57:07.769Z,98291.41
2023-05-24T11:59:38.051Z,98287.37
2023-05-24T12:02:08.122Z,98293.29
2023-05-24T12:04:35.542Z,98289.62
2023-05-24T12:07:03.274Z,98288.60
2023-05-24T12:09:30.825Z,98287.61
2023-05-24T12:11:58.797Z,98291.84
2023-05-24T12:14:33.157Z,98284.84
2023-05-24T12:17:01.188Z,98282.28
2023-05-24T12:19:36.866Z,98284.00
2023-05-24T12:22:06.020Z,98283.70
2023-05-24T12:24:34.561Z,98278.84
2023-05-24T12:27:03.409Z,98275.63
2023-05-24T12:29:38.974Z,98279.86
2023-05-24T12:32:11.944Z,98279.67
2023-05-24T12:34:45.514Z,98277.21
2023-05-24T12:37:13.689Z,98276.42
2023-05-24T12:39:43.356Z,98278.24
2023-05-24T12:42:15.428Z,98278.39
2023-05-24T12:44:42.568Z,98274.53
2023-05-24T12:47:09.914Z,98271.55
2023-05-24T12:49:37.118Z,98273.10
2023-05-24T12:52:04.689Z,98275.41
2023-05-24T12:54:32.276Z,98275.61
2023-05-24T12:57:09.314Z,98274.63
2023-05-24T12:59:37.530Z,98271.91
2023-05-24T13:02:04.762Z,98272.63
2023-05-24T13:04:33.893Z,98273.55
2023-05-24T13:07:03.055Z,98268.83
2023-05-24T13:09:30.240Z,98271.48
2023-05-24T13:11:57.396Z,98273.33
2023-05-24T13:14:27.739Z,98270.72
2023-05-24T13:16:55.050Z,98268.64
2023-05-24T13:19:22.517Z,98267.88
2023-05-24T13:21:49.680Z,98268.30
2023-05-24T13:24:17.345Z,98264.59
2023-05-24T13:26:45.215Z,98269.27
2023-05-24T13:31:45.106Z,98267.11
2023-05-24T13:34:12.565Z,98264.40
2023-05-24T13:36:40.019Z,98267.00
2023-05-24T13:41:40.301Z,98254.42
2023-05-24T13:44:07.962Z,98264.06
2023-05-24T13:46:36.722Z,98264.80
2023-05-24T13:49:04.529Z,98266.23
2023-05-24T13:51:31.864Z,98267.29
2023-05-24T13:53:59.733Z,98267.62
2023-05-24T13:56:32.869Z,98266.66
2023-05-24T13:59:03.766Z,98268.96
2023-05-24T14:01:31.993Z,98268.98
2023-05-24T14:04:01.022Z,98274.61
2023-05-24T14:06:28.339Z,98277.98
2023-05-24T14:08:55.703Z,98282.02
2023-05-24T14:11:24.822Z,98282.65
2023-05-24T14:16:22.823Z,98281.00
2023-05-24T14:18:51.706Z,98284.56
2023-05-24T14:21:19.725Z,98284.66
2023-05-24T14:23:48.317Z,98282.30
2023-05-24T14:26:15.461Z,98277.95
2023-05-24T14:28:42.611Z,98276.66
2023-05-24T14:31:09.730Z,98276.08
2023-05-24T14:33:38.540Z,98276.46
2023-05-24T14:36:06.605Z,98273.84
2023-05-24T14:38:33.743Z,98279.30
2023-05-24T14:41:01.724Z,98280.05
2023-05-24T14:43:28.781Z,98280.36
2023-05-24T14:45:56.631Z,98277.65
2023-05-24T14:48:23.697Z,98280.74
2023-05-24T14:50:50.898Z,98279.88
2023-05-24T14:53:18.631Z,98280.58
2023-05-24T14:55:46.128Z,98278.15
2023-05-24T14:58:13.473Z,98280.06
2023-05-24T15:00:41.514Z,98282.34
2023-05-24T15:03:09.291Z,98284.52
2023-05-24T15:05:39.291Z,98285.44
2023-05-24T15:08:08.057Z,98287.30
2023-05-24T15:10:35.317Z,98290.36
2023-05-24T15:13:03.967Z,98294.13
2023-05-24T15:15:31.577Z,98296.05
2023-05-24T15:18:00.105Z,98300.09
2023-05-24T15:20:27.417Z,98298.60
2023-05-24T15:22:54.883Z,98295.15
2023-05-24T15:25:22.451Z,98295.42
2023-05-24T15:27:49.713Z,98291.70
2023-05-24T15:30:19.225Z,98290.49
2023-05-24T15:32:46.828Z,98289.77
2023-05-24T15:35:14.572Z,98293.12
2023-05-24T15:37:42.779Z,98297.96
2023-05-24T15:40:10.642Z,98299.38
2023-05-24T15:42:37.997Z,98301.02
2023-05-24T15:45:05.726Z,98301.89
2023-05-24T15:47:38.116Z,98303.39
2023-05-24T15:50:07.082Z,98305.61
2023-05-24T15:52:35.006Z,98304.42
2023-05-24T15:55:02.186Z,98310.86
2023-05-24T15:57:29.417Z,98310.19
2023-05-24T15:59:56.641Z,98311.11
2023-05-24T16:02:24.276Z,98315.36
2023-05-24T16:04:51.681Z,98321.27
2023-05-24T16:07:19.662Z,98323.00
2023-05-24T16:09:47.065Z,98329.16
2023-05-24T16:12:14.298Z,98333.25
2023-05-24T16:14:41.981Z,98336.17
2023-05-24T16:17:09.091Z,98338.52
2023-05-24T16:19:36.535Z,98340.45
2023-05-24T16:22:04.578Z,98343.19
2023-05-24T16:24:31.758Z,98341.22
2023-05-24T16:26:59.256Z,98343.44
2023-05-24T16:29:26.776Z,98347.13
2023-05-24T16:31:53.892Z,98351.23
2023-05-24T16:34:23.829Z,98355.42
2023-05-24T16:36:51.378Z,98353.27
2023-05-24T16:39:18.515Z,98351.59
2023-05-24T16:41:46.829Z,98352.89
2023-05-24T16:44:18.142Z,98361.64
2023-05-24T16:46:45.728Z,98366.09
2023-05-24T16:49:13.317Z,98369.53
2023-05-24T16:51:40.652Z,98369.63
2023-05-24T16:54:09.500Z,98371.19
2023-05-24T16:56:37.826Z,98373.88
2023-05-24T16:59:05.081Z,98377.13
2023-05-24T17:01:32.647Z,98377.81
2023-05-24T17:03:59.988Z,98380.73
2023-05-24T17:06:27.821Z,98378.23
2023-05-24T17:08:55.262Z,98378.16
2023-05-24T17:11:23.332Z,98383.59
2023-05-24T17:13:51.847Z,98394.68
2023-05-24T17:16:19.253Z,98395.95
2023-05-24T17:18:46.657Z,98397.45
2023-05-24T17:21:13.838Z,98398.47
2023-05-24T17:23:41.011Z,98401.23
2023-05-24T17:26:08.318Z,98403.52
2023-05-24T17:28:36.475Z,98405.58
2023-05-24T17:31:04.040Z,98408.21
2023-05-24T17:33:32.477Z,98415.46
2023-05-24T17:36:09.768Z,98418.25
2023-05-24T17:38:37.892Z,98416.30
2023-05-24T17:41:07.991Z,98415.30
2023-05-24T17:43:36.870Z,98414.30
2023-05-24T17:46:07.025Z,98416.33
2023-05-24T17:48:39.145Z,98423.11
2023-05-24T17:51:07.766Z,98431.02
2023-05-24T17:53:35.542Z,98434.80
2023-05-24T17:56:02.854Z,98433.05
2023-05-24T17:58:36.965Z,98437.98
2023-05-24T18:01:05.538Z,98444.61
2023-05-24T18:03:37.415Z,98447.41
2023-05-24T18:06:06.870Z,98451.16
2023-05-24T18:08:36.249Z,98452.36
2023-05-24T18:11:08.470Z,98457.26
2023-05-24T18:13:37.183Z,98462.84
2023-05-24T18:16:04.230Z,98461.98
2023-05-24T18:18:31.407Z,98466.01
2023-05-24T18:20:58.724Z,98470.45
2023-05-24T18:23:26.087Z,98469.91
2023-05-24T18:26:01.804Z,98471.42
2023-05-24T18:28:30.644Z,98476.23
2023-05-24T18:30:57.951Z,98477.95
2023-05-24T18:33:25.323Z,98487.55
2023-05-24T18:35:52.654Z,98491.63
2023-05-24T18:38:19.851Z,98491.94
2023-05-24T18:40:47.098Z,98503.05
2023-05-24T18:43:14.359Z,98499.81
2023-05-24T18:45:41.888Z,98503.31
2023-05-24T18:48:09.228Z,98501.86
2023-05-24T18:50:37.120Z,98504.20
2023-05-24T18:53:04.245Z,98506.31
2023-05-24T18:55:31.531Z,98512.81
2023-05-24T18:57:58.709Z,98514.89
2023-05-24T19:00:26.363Z,98516.89
2023-05-24T19:02:55.557Z,98521.25
2023-05-24T19:05:22.955Z,98522.91
2023-05-24T19:07:50.498Z,98526.08
2023-05-24T19:10:17.952Z,98530.13
2023-05-24T19:12:45.355Z,98523.23
2023-05-24T19:15:12.703Z,98526.55
2023-05-24T19:17:40.541Z,98529.70
2023-05-24T19:20:08.363Z,98528.80
2023-05-24T19:22:35.682Z,98535.15
2023-05-24T19:25:03.445Z,98534.34
2023-05-24T19:27:31.103Z,98533.55
2023-05-24T19:30:00.275Z,98534.73
2023-05-24T19:32:27.818Z,98533.46
2023-05-24T19:34:55.228Z,98537.27
2023-05-24T19:37:22.408Z,98540.48
2023-05-24T19:39:49.635Z,98544.71
2023-05-24T19:42:16.968Z,98546.02
2023-05-24T19:44:44.212Z,98545.73
2023-05-24T19:47:11.817Z,98540.83
2023-05-24T19:49:38.940Z,98540.02
2023-05-24T19:52:06.202Z,98539.74
2023-05-24T19:54:34.269Z,98539.14
2023-05-24T19:57:02.065Z,98538.17
2023-05-24T19:59:29.770Z,98535.27
2023-05-24T20:01:57.089Z,98532.23
2023-05-24T20:04:24.553Z,98533.36
2023-05-24T20:06:52.895Z,98536.60
2023-05-24T20:09:20.017Z,98539.39
2023-05-24T20:11:47.103Z,98538.48
2023-05-24T20:14:14.331Z,98540.45
2023-05-24T20:16:42.107Z,98548.33
2023-05-24T20:19:09.132Z,98546.34
2023-05-24T20:21:39.502Z,98549.37
2023-05-24T20:24:06.773Z,98551.76
2023-05-24T20:26:35.300Z,98555.92
2023-05-24T20:29:02.384Z,98550.85
2023-05-24T20:31:30.026Z,98551.17
2023-05-24T20:33:58.060Z,98552.55
2023-05-24T20:36:25.150Z,98548.48
2023-05-24T20:38:52.280Z,98548.21
2023-05-24T20:41:19.532Z,98552.14
2023-05-24T20:43:47.127Z,98553.43
2023-05-24T20:46:14.555Z,98551.04
2023-05-24T20:48:43.382Z,98550.23
2023-05-24T20:51:10.660Z,98554.27
2023-05-24T20:53:38.129Z,98556.11
2023-05-24T20:56:05.376Z,98561.57
2023-05-24T20:58:34.690Z,98563.03
2023-05-24T21:01:01.859Z,98566.81
2023-05-24T21:03:30.075Z,98573.76
2023-05-24T21:05:57.390Z,98577.87
2023-05-24T21:08:24.426Z,98578.92
2023-05-24T21:10:51.881Z,98584.58
2023-05-24T21:13:20.546Z,98581.52
2023-05-24T21:15:47.843Z,98586.07
2023-05-24T21:18:15.504Z,98585.77
2023-05-24T21:20:42.754Z,98586.08
2023-05-24T21:23:10.609Z,98589.02
2023-05-24T21:25:37.671Z,98584.65
2023-05-24T21:28:04.906Z,98590.71
2023-05-24T21:30:32.631Z,98594.44
2023-05-24T21:33:00.295Z,98600.70
2023-05-24T21:35:28.581Z,98601.66
2023-05-24T21:37:56.192Z,98601.89
2023-05-24T21:40:23.769Z,98601.48
2023-05-24T21:42:51.260Z,98601.54
2023-05-24T21:45:18.249Z,98605.71
2023-05-24T21:47:45.680Z,98609.32
2023-05-24T21:50:12.816Z,98613.80
2023-05-24T21:52:40.965Z,98617.90
2023-05-24T21:55:08.356Z,98623.80
2023-05-24T21:57:36.006Z,98627.27
2023-05-24T22:00:04.402Z,98628.38
2023-05-24T22:02:34.591Z,98632.66
2023-05-24T22:05:01.971Z,98634.08
2023-05-24T22:07:29.372Z,98636.34
2023-05-24T22:09:56.715Z,98640.58
2023-05-24T22:12:23.980Z,98640.82
2023-05-24T22:14:51.302Z,98637.70
2023-05-24T22:17:19.346Z,98633.83
2023-05-24T22:19:48.118Z,98635.70
2023-05-24T22:22:19.589Z,98641.48
2023-05-24T22:24:47.361Z,98641.24
2023-05-24T22:27:14.810Z,98640.87
2023-05-24T22:29:41.868Z,98635.02
2023-05-24T22:32:09.359Z,98633.16
2023-05-24T22:34:36.959Z,98631.71
2023-05-24T22:37:04.462Z,98630.11
2023-05-24T22:39:31.765Z,98628.64
2023-05-24T22:41:58.930Z,98629.56
2023-05-24T22:44:26.524Z,98628.63
2023-05-24T22:46:54.125Z,98624.54
2023-05-24T22:49:21.595Z,98629.10
2023-05-24T22:51:50.645Z,98625.37
2023-05-24T22:54:17.811Z,98633.98
2023-05-24T22:56:44.989Z,98629.66
2023-05-24T22:59:12.653Z,98623.38
2023-05-24T23:01:39.770Z,98626.45
2023-05-24T23:06:39.146Z,98624.14
2023-05-24T23:09:06.564Z,98623.08
2023-05-24T23:11:35.529Z,98622.30
2023-05-24T23:14:02.934Z,98623.73
2023-05-24T23:16:31.934Z,98626.91
2023-05-24T23:18:59.091Z,98628.91
2023-05-24T23:21:26.827Z,98633.93
2023-05-24T23:23:56.985Z,98640.01
2023-05-24T23:26:23.978Z,98640.95
2023-05-24T23:28:51.148Z,98647.82
2023-05-24T23:31:18.808Z,98641.46
2023-05-24T23:33:46.137Z,98640.52
2023-05-24T23:36:13.415Z,98639.32
2023-05-24T23:38:41.171Z,98642.90
2023-05-24T23:41:08.544Z,98643.77
2023-05-24T23:43:37.308Z,98643.20
2023-05-24T23:46:04.445Z,98645.23
2023-05-24T23:48:31.513Z,98646.23
2023-05-24T23:50:58.763Z,98647.98
2023-05-24T23:53:26.058Z,98644.32
2023-05-24T23:55:53.456Z,98646.31
2023-05-24T23:58:20.883Z,98642.88
